sensor_id;sensor_type;location;lat;lon;timestamp;P1;durP1;ratioP1;P2;durP2;ratioP2
17488;SDS011;8861;52.644;4.734;2023-07-08T00:00:19;6.67;;;5.03;;
17488;SDS011;8861;52.644;4.734;2023-07-08T00:02:48;6.13;;;4.50;;
17488;SDS011;8861;52.644;4.734;2023-07-08T00:05:17;5.13;;;4.20;;
17488;SDS011;8861;52.644;4.734;2023-07-08T00:07:45;5.23;;;4.47;;
17488;SDS011;8861;52.644;4.734;2023-07-08T00:10:14;5.10;;;4.43;;
17488;SDS011;8861;52.644;4.734;2023-07-08T00:12:43;5.33;;;4.70;;
17488;SDS011;8861;52.644;4.734;2023-07-08T00:15:11;5.30;;;4.40;;
17488;SDS011;8861;52.644;4.734;2023-07-08T00:17:38;5.10;;;4.57;;
17488;SDS011;8861;52.644;4.734;2023-07-08T00:20:12;6.20;;;5.10;;
17488;SDS011;8861;52.644;4.734;2023-07-08T00:22:44;5.23;;;4.67;;
17488;SDS011;8861;52.644;4.734;2023-07-08T00:25:12;5.17;;;4.40;;
17488;SDS011;8861;52.644;4.734;2023-07-08T00:27:40;5.93;;;4.60;;
17488;SDS011;8861;52.644;4.734;2023-07-08T00:30:10;5.50;;;4.80;;
17488;SDS011;8861;52.644;4.734;2023-07-08T00:32:45;5.67;;;4.77;;
17488;SDS011;8861;52.644;4.734;2023-07-08T00:35:14;5.60;;;4.53;;
17488;SDS011;8861;52.644;4.734;2023-07-08T00:37:41;7.13;;;4.83;;
17488;SDS011;8861;52.644;4.734;2023-07-08T00:40:12;6.47;;;4.40;;
17488;SDS011;8861;52.644;4.734;2023-07-08T00:42:42;6.43;;;5.23;;
17488;SDS011;8861;52.644;4.734;2023-07-08T00:45:15;4.83;;;4.00;;
17488;SDS011;8861;52.644;4.734;2023-07-08T00:47:45;6.83;;;5.20;;
17488;SDS011;8861;52.644;4.734;2023-07-08T00:50:16;8.37;;;4.57;;
17488;SDS011;8861;52.644;4.734;2023-07-08T00:52:44;5.30;;;4.37;;
17488;SDS011;8861;52.644;4.734;2023-07-08T00:55:11;5.87;;;4.47;;
17488;SDS011;8861;52.644;4.734;2023-07-08T00:57:40;5.70;;;4.47;;
17488;SDS011;8861;52.644;4.734;2023-07-08T01:00:11;6.10;;;4.93;;
17488;SDS011;8861;52.644;4.734;2023-07-08T01:02:42;6.63;;;4.47;;
17488;SDS011;8861;52.644;4.734;2023-07-08T01:05:12;5.27;;;4.53;;
17488;SDS011;8861;52.644;4.734;2023-07-08T01:07:43;6.70;;;4.77;;
17488;SDS011;8861;52.644;4.734;2023-07-08T01:10:14;6.50;;;5.27;;
17488;SDS011;8861;52.644;4.734;2023-07-08T01:12:46;7.67;;;5.40;;
17488;SDS011;8861;52.644;4.734;2023-07-08T01:15:16;5.80;;;4.70;;
17488;SDS011;8861;52.644;4.734;2023-07-08T01:17:44;5.67;;;4.67;;
17488;SDS011;8861;52.644;4.734;2023-07-08T01:20:12;7.10;;;4.90;;
17488;SDS011;8861;52.644;4.734;2023-07-08T01:22:41;6.40;;;4.63;;
17488;SDS011;8861;52.644;4.734;2023-07-08T01:25:10;5.83;;;4.93;;
17488;SDS011;8861;52.644;4.734;2023-07-08T01:27:39;7.73;;;5.60;;
17488;SDS011;8861;52.644;4.734;2023-07-08T01:30:08;6.23;;;5.10;;
17488;SDS011;8861;52.644;4.734;2023-07-08T01:32:37;5.97;;;5.03;;
17488;SDS011;8861;52.644;4.734;2023-07-08T01:35:09;6.77;;;5.47;;
17488;SDS011;8861;52.644;4.734;2023-07-08T01:37:39;5.40;;;4.90;;
17488;SDS011;8861;52.644;4.734;2023-07-08T01:40:19;5.90;;;4.90;;
17488;SDS011;8861;52.644;4.734;2023-07-08T01:42:51;7.03;;;5.03;;
17488;SDS011;8861;52.644;4.734;2023-07-08T01:45:18;7.63;;;5.27;;
17488;SDS011;8861;52.644;4.734;2023-07-08T01:47:50;6.73;;;5.10;;
17488;SDS011;8861;52.644;4.734;2023-07-08T01:50:20;6.23;;;5.20;;
17488;SDS011;8861;52.644;4.734;2023-07-08T01:52:52;5.77;;;4.87;;
17488;SDS011;8861;52.644;4.734;2023-07-08T01:55:23;6.03;;;5.03;;
17488;SDS011;8861;52.644;4.734;2023-07-08T01:57:51;6.80;;;5.40;;
17488;SDS011;8861;52.644;4.734;2023-07-08T02:00:19;6.33;;;5.00;;
17488;SDS011;8861;52.644;4.734;2023-07-08T02:02:46;6.07;;;4.80;;
17488;SDS011;8861;52.644;4.734;2023-07-08T02:05:14;6.13;;;5.10;;
17488;SDS011;8861;52.644;4.734;2023-07-08T02:07:41;7.37;;;5.30;;
17488;SDS011;8861;52.644;4.734;2023-07-08T02:10:09;6.00;;;5.03;;
17488;SDS011;8861;52.644;4.734;2023-07-08T02:12:36;7.37;;;5.30;;
17488;SDS011;8861;52.644;4.734;2023-07-08T02:15:04;6.63;;;5.30;;
17488;SDS011;8861;52.644;4.734;2023-07-08T02:17:32;7.03;;;5.40;;
17488;SDS011;8861;52.644;4.734;2023-07-08T02:19:59;6.00;;;5.03;;
17488;SDS011;8861;52.644;4.734;2023-07-08T02:22:26;5.80;;;5.20;;
17488;SDS011;8861;52.644;4.734;2023-07-08T02:24:53;6.57;;;5.20;;
17488;SDS011;8861;52.644;4.734;2023-07-08T02:27:21;6.63;;;5.10;;
17488;SDS011;8861;52.644;4.734;2023-07-08T02:29:49;6.40;;;5.17;;
17488;SDS011;8861;52.644;4.734;2023-07-08T02:32:15;5.83;;;5.20;;
17488;SDS011;8861;52.644;4.734;2023-07-08T02:34:43;6.03;;;5.13;;
17488;SDS011;8861;52.644;4.734;2023-07-08T02:37:10;6.33;;;5.47;;
17488;SDS011;8861;52.644;4.734;2023-07-08T02:39:37;7.20;;;5.50;;
17488;SDS011;8861;52.644;4.734;2023-07-08T02:42:04;5.97;;;5.10;;
17488;SDS011;8861;52.644;4.734;2023-07-08T02:44:32;6.90;;;5.17;;
17488;SDS011;8861;52.644;4.734;2023-07-08T02:46:59;7.40;;;5.73;;
17488;SDS011;8861;52.644;4.734;2023-07-08T02:49:26;6.77;;;5.30;;
17488;SDS011;8861;52.644;4.734;2023-07-08T02:51:54;5.33;;;4.80;;
17488;SDS011;8861;52.644;4.734;2023-07-08T02:54:21;7.00;;;5.37;;
17488;SDS011;8861;52.644;4.734;2023-07-08T02:56:47;6.93;;;5.37;;
17488;SDS011;8861;52.644;4.734;2023-07-08T02:59:17;7.53;;;5.70;;
17488;SDS011;8861;52.644;4.734;2023-07-08T03:01:46;5.97;;;5.03;;
17488;SDS011;8861;52.644;4.734;2023-07-08T03:04:13;8.40;;;5.60;;
17488;SDS011;8861;52.644;4.734;2023-07-08T03:06:40;6.03;;;5.27;;
17488;SDS011;8861;52.644;4.734;2023-07-08T03:09:08;7.30;;;5.17;;
17488;SDS011;8861;52.644;4.734;2023-07-08T03:11:38;9.17;;;5.47;;
17488;SDS011;8861;52.644;4.734;2023-07-08T03:14:05;6.37;;;4.73;;
17488;SDS011;8861;52.644;4.734;2023-07-08T03:16:32;7.60;;;5.53;;
17488;SDS011;8861;52.644;4.734;2023-07-08T03:19:01;7.13;;;5.77;;
17488;SDS011;8861;52.644;4.734;2023-07-08T03:21:29;7.07;;;5.53;;
17488;SDS011;8861;52.644;4.734;2023-07-08T03:23:56;6.37;;;5.30;;
17488;SDS011;8861;52.644;4.734;2023-07-08T03:26:24;5.90;;;5.13;;
17488;SDS011;8861;52.644;4.734;2023-07-08T03:28:52;6.20;;;5.00;;
17488;SDS011;8861;52.644;4.734;2023-07-08T03:31:19;7.17;;;4.90;;
17488;SDS011;8861;52.644;4.734;2023-07-08T03:33:46;6.73;;;5.60;;
17488;SDS011;8861;52.644;4.734;2023-07-08T03:36:16;7.93;;;5.60;;
17488;SDS011;8861;52.644;4.734;2023-07-08T03:38:49;7.23;;;5.10;;
17488;SDS011;8861;52.644;4.734;2023-07-08T03:41:16;6.70;;;4.93;;
17488;SDS011;8861;52.644;4.734;2023-07-08T03:43:43;6.93;;;5.13;;
17488;SDS011;8861;52.644;4.734;2023-07-08T03:46:10;7.43;;;5.67;;
17488;SDS011;8861;52.644;4.734;2023-07-08T03:48:38;7.93;;;4.87;;
17488;SDS011;8861;52.644;4.734;2023-07-08T03:51:06;7.30;;;5.00;;
17488;SDS011;8861;52.644;4.734;2023-07-08T03:53:37;6.33;;;5.00;;
17488;SDS011;8861;52.644;4.734;2023-07-08T03:56:04;6.33;;;4.73;;
17488;SDS011;8861;52.644;4.734;2023-07-08T03:58:31;7.57;;;5.97;;
17488;SDS011;8861;52.644;4.734;2023-07-08T04:00:58;8.03;;;5.40;;
17488;SDS011;8861;52.644;4.734;2023-07-08T04:03:25;5.87;;;4.97;;
17488;SDS011;8861;52.644;4.734;2023-07-08T04:05:52;6.50;;;4.90;;
17488;SDS011;8861;52.644;4.734;2023-07-08T04:08:19;6.00;;;5.00;;
17488;SDS011;8861;52.644;4.734;2023-07-08T04:10:47;6.53;;;5.27;;
17488;SDS011;8861;52.644;4.734;2023-07-08T04:13:14;7.63;;;5.03;;
17488;SDS011;8861;52.644;4.734;2023-07-08T04:15:41;5.60;;;4.90;;
17488;SDS011;8861;52.644;4.734;2023-07-08T04:18:08;7.67;;;5.43;;
17488;SDS011;8861;52.644;4.734;2023-07-08T04:20:35;6.90;;;5.33;;
17488;SDS011;8861;52.644;4.734;2023-07-08T04:23:02;5.90;;;5.20;;
17488;SDS011;8861;52.644;4.734;2023-07-08T04:25:29;6.87;;;5.30;;
17488;SDS011;8861;52.644;4.734;2023-07-08T04:27:58;7.67;;;5.30;;
17488;SDS011;8861;52.644;4.734;2023-07-08T04:30:25;6.80;;;5.50;;
17488;SDS011;8861;52.644;4.734;2023-07-08T04:32:52;6.83;;;5.20;;
17488;SDS011;8861;52.644;4.734;2023-07-08T04:35:21;6.53;;;5.30;;
17488;SDS011;8861;52.644;4.734;2023-07-08T04:37:48;7.37;;;5.37;;
17488;SDS011;8861;52.644;4.734;2023-07-08T04:40:16;5.80;;;5.20;;
17488;SDS011;8861;52.644;4.734;2023-07-08T04:42:45;6.73;;;5.17;;
17488;SDS011;8861;52.644;4.734;2023-07-08T04:45:15;6.83;;;5.20;;
17488;SDS011;8861;52.644;4.734;2023-07-08T04:47:43;7.57;;;5.80;;
17488;SDS011;8861;52.644;4.734;2023-07-08T04:50:12;7.30;;;5.00;;
17488;SDS011;8861;52.644;4.734;2023-07-08T04:52:39;6.50;;;4.93;;
17488;SDS011;8861;52.644;4.734;2023-07-08T04:55:06;7.33;;;5.23;;
17488;SDS011;8861;52.644;4.734;2023-07-08T04:57:35;6.83;;;5.10;;
17488;SDS011;8861;52.644;4.734;2023-07-08T05:00:03;8.47;;;5.40;;
17488;SDS011;8861;52.644;4.734;2023-07-08T05:02:34;6.47;;;5.43;;
17488;SDS011;8861;52.644;4.734;2023-07-08T05:05:01;6.57;;;5.47;;
17488;SDS011;8861;52.644;4.734;2023-07-08T05:07:29;5.70;;;5.00;;
17488;SDS011;8861;52.644;4.734;2023-07-08T05:09:55;6.70;;;5.07;;
17488;SDS011;8861;52.644;4.734;2023-07-08T05:12:25;5.67;;;4.80;;
17488;SDS011;8861;52.644;4.734;2023-07-08T05:14:52;7.03;;;5.20;;
17488;SDS011;8861;52.644;4.734;2023-07-08T05:17:19;5.83;;;5.07;;
17488;SDS011;8861;52.644;4.734;2023-07-08T05:19:48;5.27;;;4.77;;
17488;SDS011;8861;52.644;4.734;2023-07-08T05:22:16;6.73;;;4.97;;
17488;SDS011;8861;52.644;4.734;2023-07-08T05:24:50;6.43;;;5.20;;
17488;SDS011;8861;52.644;4.734;2023-07-08T05:27:20;8.70;;;5.53;;
17488;SDS011;8861;52.644;4.734;2023-07-08T05:29:48;6.27;;;5.07;;
17488;SDS011;8861;52.644;4.734;2023-07-08T05:32:16;7.13;;;5.67;;
17488;SDS011;8861;52.644;4.734;2023-07-08T05:34:43;6.27;;;5.00;;
17488;SDS011;8861;52.644;4.734;2023-07-08T05:37:12;7.17;;;4.97;;
17488;SDS011;8861;52.644;4.734;2023-07-08T05:39:40;6.60;;;5.13;;
17488;SDS011;8861;52.644;4.734;2023-07-08T05:42:07;7.23;;;5.30;;
17488;SDS011;8861;52.644;4.734;2023-07-08T05:44:34;6.07;;;5.10;;
17488;SDS011;8861;52.644;4.734;2023-07-08T05:47:01;5.47;;;4.90;;
17488;SDS011;8861;52.644;4.734;2023-07-08T05:49:29;5.63;;;4.93;;
17488;SDS011;8861;52.644;4.734;2023-07-08T05:51:56;5.37;;;4.60;;
17488;SDS011;8861;52.644;4.734;2023-07-08T05:54:24;6.17;;;4.67;;
17488;SDS011;8861;52.644;4.734;2023-07-08T05:56:51;6.47;;;5.23;;
17488;SDS011;8861;52.644;4.734;2023-07-08T05:59:18;5.47;;;4.90;;
17488;SDS011;8861;52.644;4.734;2023-07-08T06:01:45;6.10;;;4.90;;
17488;SDS011;8861;52.644;4.734;2023-07-08T06:04:12;7.90;;;4.90;;
17488;SDS011;8861;52.644;4.734;2023-07-08T06:06:39;6.10;;;5.10;;
17488;SDS011;8861;52.644;4.734;2023-07-08T06:09:06;6.33;;;5.20;;
17488;SDS011;8861;52.644;4.734;2023-07-08T06:11:35;7.37;;;4.90;;
17488;SDS011;8861;52.644;4.734;2023-07-08T06:14:02;7.90;;;5.23;;
17488;SDS011;8861;52.644;4.734;2023-07-08T06:16:29;6.20;;;4.97;;
17488;SDS011;8861;52.644;4.734;2023-07-08T06:18:56;6.87;;;5.20;;
17488;SDS011;8861;52.644;4.734;2023-07-08T06:21:23;7.03;;;5.60;;
17488;SDS011;8861;52.644;4.734;2023-07-08T06:23:50;8.97;;;5.30;;
17488;SDS011;8861;52.644;4.734;2023-07-08T06:26:17;7.17;;;5.30;;
17488;SDS011;8861;52.644;4.734;2023-07-08T06:28:46;7.97;;;5.57;;
17488;SDS011;8861;52.644;4.734;2023-07-08T06:31:13;7.77;;;5.17;;
17488;SDS011;8861;52.644;4.734;2023-07-08T06:33:40;6.80;;;5.30;;
17488;SDS011;8861;52.644;4.734;2023-07-08T06:36:07;6.50;;;5.47;;
17488;SDS011;8861;52.644;4.734;2023-07-08T06:38:35;5.43;;;4.93;;
17488;SDS011;8861;52.644;4.734;2023-07-08T06:41:01;5.60;;;4.53;;
17488;SDS011;8861;52.644;4.734;2023-07-08T06:43:28;6.33;;;4.93;;
17488;SDS011;8861;52.644;4.734;2023-07-08T06:45:57;6.07;;;4.93;;
17488;SDS011;8861;52.644;4.734;2023-07-08T06:48:24;7.47;;;5.47;;
17488;SDS011;8861;52.644;4.734;2023-07-08T06:50:51;8.00;;;5.40;;
17488;SDS011;8861;52.644;4.734;2023-07-08T06:53:18;6.87;;;5.33;;
17488;SDS011;8861;52.644;4.734;2023-07-08T06:55:45;9.23;;;5.30;;
17488;SDS011;8861;52.644;4.734;2023-07-08T06:58:12;8.00;;;4.90;;
17488;SDS011;8861;52.644;4.734;2023-07-08T07:00:41;6.03;;;4.70;;
17488;SDS011;8861;52.644;4.734;2023-07-08T07:03:09;6.40;;;4.93;;
17488;SDS011;8861;52.644;4.734;2023-07-08T07:05:36;7.53;;;5.07;;
17488;SDS011;8861;52.644;4.734;2023-07-08T07:08:03;5.13;;;4.50;;
17488;SDS011;8861;52.644;4.734;2023-07-08T07:10:32;5.43;;;4.63;;
17488;SDS011;8861;52.644;4.734;2023-07-08T07:12:59;6.03;;;5.17;;
17488;SDS011;8861;52.644;4.734;2023-07-08T07:15:26;6.43;;;4.83;;
17488;SDS011;8861;52.644;4.734;2023-07-08T07:17:55;6.90;;;5.20;;
17488;SDS011;8861;52.644;4.734;2023-07-08T07:20:24;6.53;;;5.10;;
17488;SDS011;8861;52.644;4.734;2023-07-08T07:22:51;8.40;;;5.47;;
17488;SDS011;8861;52.644;4.734;2023-07-08T07:25:18;6.60;;;4.97;;
17488;SDS011;8861;52.644;4.734;2023-07-08T07:27:46;5.27;;;4.77;;
17488;SDS011;8861;52.644;4.734;2023-07-08T07:30:13;5.63;;;5.03;;
17488;SDS011;8861;52.644;4.734;2023-07-08T07:32:40;6.47;;;5.10;;
17488;SDS011;8861;52.644;4.734;2023-07-08T07:35:08;5.50;;;4.60;;
17488;SDS011;8861;52.644;4.734;2023-07-08T07:37:39;5.33;;;4.77;;
17488;SDS011;8861;52.644;4.734;2023-07-08T07:40:07;6.93;;;4.90;;
17488;SDS011;8861;52.644;4.734;2023-07-08T07:42:37;6.10;;;4.40;;
17488;SDS011;8861;52.644;4.734;2023-07-08T07:45:04;5.70;;;4.70;;
17488;SDS011;8861;52.644;4.734;2023-07-08T07:47:32;5.10;;;4.60;;
17488;SDS011;8861;52.644;4.734;2023-07-08T07:49:59;5.97;;;4.53;;
17488;SDS011;8861;52.644;4.734;2023-07-08T07:52:27;5.93;;;4.50;;
17488;SDS011;8861;52.644;4.734;2023-07-08T07:54:55;6.83;;;4.87;;
17488;SDS011;8861;52.644;4.734;2023-07-08T07:57:22;6.63;;;5.00;;
17488;SDS011;8861;52.644;4.734;2023-07-08T07:59:50;6.67;;;5.07;;
17488;SDS011;8861;52.644;4.734;2023-07-08T08:02:17;6.73;;;5.17;;
17488;SDS011;8861;52.644;4.734;2023-07-08T08:04:45;5.43;;;4.93;;
17488;SDS011;8861;52.644;4.734;2023-07-08T08:07:12;5.80;;;4.60;;
17488;SDS011;8861;52.644;4.734;2023-07-08T08:09:41;5.53;;;4.90;;
17488;SDS011;8861;52.644;4.734;2023-07-08T08:12:09;7.70;;;4.90;;
17488;SDS011;8861;52.644;4.734;2023-07-08T08:14:37;5.27;;;4.60;;
17488;SDS011;8861;52.644;4.734;2023-07-08T08:17:04;5.00;;;4.50;;
17488;SDS011;8861;52.644;4.734;2023-07-08T08:19:31;5.80;;;4.60;;
17488;SDS011;8861;52.644;4.734;2023-07-08T08:21:58;5.70;;;4.83;;
17488;SDS011;8861;52.644;4.734;2023-07-08T08:24:26;5.43;;;4.70;;
17488;SDS011;8861;52.644;4.734;2023-07-08T08:26:53;6.97;;;5.27;;
17488;SDS011;8861;52.644;4.734;2023-07-08T08:29:21;5.57;;;4.70;;
17488;SDS011;8861;52.644;4.734;2023-07-08T08:31:48;5.93;;;5.33;;
17488;SDS011;8861;52.644;4.734;2023-07-08T08:34:15;6.30;;;5.00;;
17488;SDS011;8861;52.644;4.734;2023-07-08T08:36:42;4.80;;;4.30;;
17488;SDS011;8861;52.644;4.734;2023-07-08T08:39:09;5.33;;;4.70;;
17488;SDS011;8861;52.644;4.734;2023-07-08T08:41:37;5.97;;;4.67;;
17488;SDS011;8861;52.644;4.734;2023-07-08T08:44:08;6.47;;;4.60;;
17488;SDS011;8861;52.644;4.734;2023-07-08T08:46:43;6.13;;;5.00;;
17488;SDS011;8861;52.644;4.734;2023-07-08T08:49:17;5.97;;;5.37;;
17488;SDS011;8861;52.644;4.734;2023-07-08T08:51:51;7.03;;;5.30;;
17488;SDS011;8861;52.644;4.734;2023-07-08T08:54:18;5.17;;;4.47;;
17488;SDS011;8861;52.644;4.734;2023-07-08T08:56:54;5.37;;;4.87;;
17488;SDS011;8861;52.644;4.734;2023-07-08T08:59:28;5.97;;;4.97;;
17488;SDS011;8861;52.644;4.734;2023-07-08T09:02:18;5.50;;;4.50;;
17488;SDS011;8861;52.644;4.734;2023-07-08T09:04:53;4.60;;;4.10;;
17488;SDS011;8861;52.644;4.734;2023-07-08T09:07:21;6.20;;;4.70;;
17488;SDS011;8861;52.644;4.734;2023-07-08T09:09:50;5.63;;;4.80;;
17488;SDS011;8861;52.644;4.734;2023-07-08T09:12:25;6.57;;;4.97;;
17488;SDS011;8861;52.644;4.734;2023-07-08T09:14:55;5.73;;;4.70;;
17488;SDS011;8861;52.644;4.734;2023-07-08T09:17:24;7.40;;;4.80;;
17488;SDS011;8861;52.644;4.734;2023-07-08T09:19:58;5.30;;;4.80;;
17488;SDS011;8861;52.644;4.734;2023-07-08T09:22:32;5.87;;;5.20;;
17488;SDS011;8861;52.644;4.734;2023-07-08T09:25:07;5.53;;;5.03;;
17488;SDS011;8861;52.644;4.734;2023-07-08T09:27:45;5.93;;;4.97;;
17488;SDS011;8861;52.644;4.734;2023-07-08T09:30:13;5.20;;;4.70;;
17488;SDS011;8861;52.644;4.734;2023-07-08T09:32:43;5.50;;;4.90;;
17488;SDS011;8861;52.644;4.734;2023-07-08T09:35:16;6.43;;;5.10;;
17488;SDS011;8861;52.644;4.734;2023-07-08T09:37:45;6.13;;;5.40;;
17488;SDS011;8861;52.644;4.734;2023-07-08T09:40:15;6.50;;;5.27;;
17488;SDS011;8861;52.644;4.734;2023-07-08T09:42:44;5.63;;;4.73;;
17488;SDS011;8861;52.644;4.734;2023-07-08T09:45:15;5.93;;;5.07;;
17488;SDS011;8861;52.644;4.734;2023-07-08T09:47:46;5.33;;;4.67;;
17488;SDS011;8861;52.644;4.734;2023-07-08T09:50:18;5.70;;;4.87;;
17488;SDS011;8861;52.644;4.734;2023-07-08T09:52:46;5.93;;;4.87;;
17488;SDS011;8861;52.644;4.734;2023-07-08T09:55:14;6.73;;;5.07;;
17488;SDS011;8861;52.644;4.734;2023-07-08T09:57:41;6.17;;;5.00;;
17488;SDS011;8861;52.644;4.734;2023-07-08T10:00:11;6.17;;;5.37;;
17488;SDS011;8861;52.644;4.734;2023-07-08T10:02:41;6.43;;;4.77;;
17488;SDS011;8861;52.644;4.734;2023-07-08T10:05:14;7.47;;;5.30;;
17488;SDS011;8861;52.644;4.734;2023-07-08T10:07:44;6.10;;;5.50;;
17488;SDS011;8861;52.644;4.734;2023-07-08T10:10:12;7.97;;;5.47;;
17488;SDS011;8861;52.644;4.734;2023-07-08T10:12:43;6.37;;;5.20;;
17488;SDS011;8861;52.644;4.734;2023-07-08T10:15:20;7.47;;;5.30;;
17488;SDS011;8861;52.644;4.734;2023-07-08T10:17:50;6.90;;;5.50;;
17488;SDS011;8861;52.644;4.734;2023-07-08T10:20:19;6.90;;;5.17;;
17488;SDS011;8861;52.644;4.734;2023-07-08T10:22:52;6.97;;;5.63;;
17488;SDS011;8861;52.644;4.734;2023-07-08T10:25:28;6.10;;;5.17;;
17488;SDS011;8861;52.644;4.734;2023-07-08T10:28:08;6.07;;;4.97;;
17488;SDS011;8861;52.644;4.734;2023-07-08T10:30:50;6.93;;;6.00;;
17488;SDS011;8861;52.644;4.734;2023-07-08T10:33:32;6.30;;;5.60;;
17488;SDS011;8861;52.644;4.734;2023-07-08T10:36:21;6.10;;;5.43;;
17488;SDS011;8861;52.644;4.734;2023-07-08T10:39:10;7.07;;;5.17;;
17488;SDS011;8861;52.644;4.734;2023-07-08T10:41:58;5.77;;;5.17;;
17488;SDS011;8861;52.644;4.734;2023-07-08T10:44:33;7.40;;;5.60;;
17488;SDS011;8861;52.644;4.734;2023-07-08T10:47:07;7.67;;;5.70;;
17488;SDS011;8861;52.644;4.734;2023-07-08T10:49:44;6.57;;;5.57;;
17488;SDS011;8861;52.644;4.734;2023-07-08T10:52:29;6.47;;;5.70;;
17488;SDS011;8861;52.644;4.734;2023-07-08T10:55:12;5.87;;;5.23;;
17488;SDS011;8861;52.644;4.734;2023-07-08T10:57:51;6.70;;;5.40;;
17488;SDS011;8861;52.644;4.734;2023-07-08T11:00:28;7.77;;;5.87;;
17488;SDS011;8861;52.644;4.734;2023-07-08T11:06:10;5.90;;;5.17;;
17488;SDS011;8861;52.644;4.734;2023-07-08T11:08:42;7.23;;;5.80;;
17488;SDS011;8861;52.644;4.734;2023-07-08T11:11:22;7.43;;;5.63;;
17488;SDS011;8861;52.644;4.734;2023-07-08T11:13:59;8.07;;;5.90;;
17488;SDS011;8861;52.644;4.734;2023-07-08T11:16:34;6.80;;;5.80;;
17488;SDS011;8861;52.644;4.734;2023-07-08T11:19:07;7.10;;;5.70;;
17488;SDS011;8861;52.644;4.734;2023-07-08T11:21:40;8.40;;;5.97;;
17488;SDS011;8861;52.644;4.734;2023-07-08T11:24:12;7.07;;;5.73;;
17488;SDS011;8861;52.644;4.734;2023-07-08T11:26:48;8.37;;;5.70;;
17488;SDS011;8861;52.644;4.734;2023-07-08T11:29:20;7.77;;;5.90;;
17488;SDS011;8861;52.644;4.734;2023-07-08T11:31:51;6.37;;;5.77;;
17488;SDS011;8861;52.644;4.734;2023-07-08T11:34:19;8.10;;;6.03;;
17488;SDS011;8861;52.644;4.734;2023-07-08T11:36:47;7.30;;;5.83;;
17488;SDS011;8861;52.644;4.734;2023-07-08T11:39:27;7.27;;;5.57;;
17488;SDS011;8861;52.644;4.734;2023-07-08T11:42:04;6.53;;;5.63;;
17488;SDS011;8861;52.644;4.734;2023-07-08T11:44:44;6.20;;;5.50;;
17488;SDS011;8861;52.644;4.734;2023-07-08T11:47:18;6.27;;;5.50;;
17488;SDS011;8861;52.644;4.734;2023-07-08T11:49:48;5.97;;;5.37;;
17488;SDS011;8861;52.644;4.734;2023-07-08T11:52:17;6.87;;;5.33;;
17488;SDS011;8861;52.644;4.734;2023-07-08T11:54:47;6.90;;;5.77;;
17488;SDS011;8861;52.644;4.734;2023-07-08T11:57:24;6.13;;;5.53;;
17488;SDS011;8861;52.644;4.734;2023-07-08T12:00:06;6.50;;;5.70;;
17488;SDS011;8861;52.644;4.734;2023-07-08T12:02:50;7.67;;;5.30;;
17488;SDS011;8861;52.644;4.734;2023-07-08T12:05:28;6.80;;;6.10;;
17488;SDS011;8861;52.644;4.734;2023-07-08T12:07:58;8.90;;;5.60;;
17488;SDS011;8861;52.644;4.734;2023-07-08T12:10:31;7.60;;;5.50;;
17488;SDS011;8861;52.644;4.734;2023-07-08T12:13:01;6.40;;;4.70;;
17488;SDS011;8861;52.644;4.734;2023-07-08T12:15:29;5.43;;;4.73;;
17488;SDS011;8861;52.644;4.734;2023-07-08T12:17:58;6.37;;;4.63;;
17488;SDS011;8861;52.644;4.734;2023-07-08T12:20:28;6.23;;;4.57;;
17488;SDS011;8861;52.644;4.734;2023-07-08T12:22:57;4.40;;;4.00;;
17488;SDS011;8861;52.644;4.734;2023-07-08T12:25:26;4.80;;;4.30;;
17488;SDS011;8861;52.644;4.734;2023-07-08T12:27:57;4.70;;;3.80;;
17488;SDS011;8861;52.644;4.734;2023-07-08T12:30:25;4.20;;;3.70;;
17488;SDS011;8861;52.644;4.734;2023-07-08T12:32:55;5.30;;;4.10;;
17488;SDS011;8861;52.644;4.734;2023-07-08T12:35:24;5.95;;;4.00;;
17488;SDS011;8861;52.644;4.734;2023-07-08T12:37:53;4.10;;;3.70;;
17488;SDS011;8861;52.644;4.734;2023-07-08T12:40:23;4.65;;;4.03;;
17488;SDS011;8861;52.644;4.734;2023-07-08T12:42:53;4.57;;;4.18;;
17488;SDS011;8861;52.644;4.734;2023-07-08T12:45:21;5.03;;;4.15;;
17488;SDS011;8861;52.644;4.734;2023-07-08T12:47:50;6.85;;;3.92;;
17488;SDS011;8861;52.644;4.734;2023-07-08T12:50:17;4.55;;;4.10;;
17488;SDS011;8861;52.644;4.734;2023-07-08T12:52:45;5.80;;;4.50;;
17488;SDS011;8861;52.644;4.734;2023-07-08T12:55:13;7.65;;;4.50;;
17488;SDS011;8861;52.644;4.734;2023-07-08T12:57:42;5.78;;;4.80;;
17488;SDS011;8861;52.644;4.734;2023-07-08T13:00:14;6.30;;;4.40;;
17488;SDS011;8861;52.644;4.734;2023-07-08T13:02:44;5.00;;;4.50;;
17488;SDS011;8861;52.644;4.734;2023-07-08T13:05:12;6.40;;;5.27;;
17488;SDS011;8861;52.644;4.734;2023-07-08T13:07:41;5.80;;;4.90;;
17488;SDS011;8861;52.644;4.734;2023-07-08T13:10:16;5.33;;;4.80;;
17488;SDS011;8861;52.644;4.734;2023-07-08T13:12:46;7.13;;;5.23;;
17488;SDS011;8861;52.644;4.734;2023-07-08T13:15:20;5.77;;;5.17;;
17488;SDS011;8861;52.644;4.734;2023-07-08T13:17:49;7.13;;;4.93;;
17488;SDS011;8861;52.644;4.734;2023-07-08T13:20:17;6.17;;;5.13;;
17488;SDS011;8861;52.644;4.734;2023-07-08T13:22:46;6.20;;;5.60;;
17488;SDS011;8861;52.644;4.734;2023-07-08T13:25:18;6.33;;;5.73;;
17488;SDS011;8861;52.644;4.734;2023-07-08T13:27:55;6.43;;;5.50;;
17488;SDS011;8861;52.644;4.734;2023-07-08T13:30:25;7.17;;;5.83;;
17488;SDS011;8861;52.644;4.734;2023-07-08T13:32:54;6.67;;;5.73;;
17488;SDS011;8861;52.644;4.734;2023-07-08T13:35:23;6.07;;;5.47;;
17488;SDS011;8861;52.644;4.734;2023-07-08T13:37:51;6.60;;;5.90;;
17488;SDS011;8861;52.644;4.734;2023-07-08T13:40:19;9.23;;;5.90;;
17488;SDS011;8861;52.644;4.734;2023-07-08T13:42:47;7.70;;;5.60;;
17488;SDS011;8861;52.644;4.734;2023-07-08T13:45:15;6.60;;;5.70;;
17488;SDS011;8861;52.644;4.734;2023-07-08T13:47:58;6.90;;;5.63;;
17488;SDS011;8861;52.644;4.734;2023-07-08T13:50:28;7.07;;;5.87;;
17488;SDS011;8861;52.644;4.734;2023-07-08T13:53:01;5.73;;;5.17;;
17488;SDS011;8861;52.644;4.734;2023-07-08T13:55:29;5.87;;;5.27;;
17488;SDS011;8861;52.644;4.734;2023-07-08T13:57:57;6.53;;;5.80;;
17488;SDS011;8861;52.644;4.734;2023-07-08T14:00:28;7.47;;;5.53;;
17488;SDS011;8861;52.644;4.734;2023-07-08T14:02:56;6.13;;;5.53;;
17488;SDS011;8861;52.644;4.734;2023-07-08T14:05:25;6.07;;;5.33;;
17488;SDS011;8861;52.644;4.734;2023-07-08T14:07:52;5.23;;;4.73;;
17488;SDS011;8861;52.644;4.734;2023-07-08T14:10:19;4.93;;;4.43;;
17488;SDS011;8861;52.644;4.734;2023-07-08T14:12:46;5.00;;;4.50;;
17488;SDS011;8861;52.644;4.734;2023-07-08T14:15:13;4.50;;;4.10;;
17488;SDS011;8861;52.644;4.734;2023-07-08T14:17:40;4.50;;;4.10;;
17488;SDS011;8861;52.644;4.734;2023-07-08T14:20:12;4.75;;;3.90;;
17488;SDS011;8861;52.644;4.734;2023-07-08T14:22:42;4.68;;;4.20;;
17488;SDS011;8861;52.644;4.734;2023-07-08T14:25:09;4.43;;;4.03;;
17488;SDS011;8861;52.644;4.734;2023-07-08T14:27:39;4.57;;;4.00;;
17488;SDS011;8861;52.644;4.734;2023-07-08T14:30:08;4.80;;;4.40;;
17488;SDS011;8861;52.644;4.734;2023-07-08T14:32:36;5.78;;;4.40;;
17488;SDS011;8861;52.644;4.734;2023-07-08T14:35:11;6.80;;;4.70;;
17488;SDS011;8861;52.644;4.734;2023-07-08T14:37:42;6.38;;;4.57;;
17488;SDS011;8861;52.644;4.734;2023-07-08T14:40:11;9.55;;;4.90;;
17488;SDS011;8861;52.644;4.734;2023-07-08T14:42:46;4.93;;;4.10;;
17488;SDS011;8861;52.644;4.734;2023-07-08T14:45:13;5.05;;;4.55;;
17488;SDS011;8861;52.644;4.734;2023-07-08T14:47:40;5.07;;;4.40;;
17488;SDS011;8861;52.644;4.734;2023-07-08T14:50:12;5.40;;;4.57;;
17488;SDS011;8861;52.644;4.734;2023-07-08T14:52:41;6.30;;;4.45;;
17488;SDS011;8861;52.644;4.734;2023-07-08T14:55:08;4.95;;;4.45;;
17488;SDS011;8861;52.644;4.734;2023-07-08T14:57:40;4.53;;;4.13;;
17488;SDS011;8861;52.644;4.734;2023-07-08T15:00:10;6.00;;;4.78;;
17488;SDS011;8861;52.644;4.734;2023-07-08T15:02:39;7.13;;;5.32;;
17488;SDS011;8861;52.644;4.734;2023-07-08T15:05:19;7.07;;;5.53;;
17488;SDS011;8861;52.644;4.734;2023-07-08T15:07:50;6.28;;;5.10;;
17488;SDS011;8861;52.644;4.734;2023-07-08T15:10:17;5.68;;;5.07;;
17488;SDS011;8861;52.644;4.734;2023-07-08T15:12:45;5.00;;;4.50;;
17488;SDS011;8861;52.644;4.734;2023-07-08T15:15:16;5.45;;;4.95;;
17488;SDS011;8861;52.644;4.734;2023-07-08T15:17:48;6.30;;;4.93;;